Et un breveté de plus!!!!

Rédigé par Admin - 06 février 2017


Clément Cadier, notre plus jeune pilote, a réussi brillamment son brevet de Base en janvier 2017.

De gauche à droite : Jean Luc son Instructeur, Michel le testeur et Clément.

«Toutes nos félicitations Clément!!! »

Classé dans : Non classé - Mots clés : aucun

A propos de l'auteur:

Pilote et webmaster de ce site.

Les commentaires sont fermés.

Webcam :

Nuit aéronautique

16 Feb 2019

Heure locale,
pour LFDL uniquement.

Lever du soleil aéronautique :07:33
Lever du soleil :08:03
Coucher du soleil :18:24
Coucher du soleil aéronautique :18:54

Metar

LFBI :
2019/02/16 16:00
LFBI 161600Z AUTO 16006KT CAVOK 17/04 Q1024 NOSIG
LFBI :
Poitiers, France (LFBI) 46-35N 000-19E 120M
Feb 16, 2019 - 11:00 AM EST / 2019.02.16 1600 UTC
Wind: from the SSE (160 degrees) at 7 MPH (6 KT):0
Visibility: greater than 7 mile(s):0
Temperature: 62 F (17 C)
Dew Point: 39 F (4 C)
Relative Humidity: 41%
Pressure (altimeter): 30.24 in. Hg (1024 hPa)
ob: LFBI 161600Z AUTO 16006KT CAVOK 17/04 Q1024 NOSIG
cycle: 16

Afficher le metar d'une autre station :
Code OACI :

Aéroclub de Loudun


Bellevue
86200 Loudun


Contacter Michel Richez (président)

  • Mail:michel.richez@free.fr
  • Tel:09-50-38-02-06
  • Mobile:06-52-73-09-01



agrandir le plan

Newsletter

Mon e-mail :